createdAt,value
2018-10-03T00:01:01.434Z,59.20
2018-10-03T00:03:30.608Z,59.31
2018-10-03T00:05:59.787Z,59.48
2018-10-03T00:08:28.950Z,59.65
2018-10-03T00:10:58.153Z,60.16
2018-10-03T00:13:27.312Z,60.18
2018-10-03T00:15:56.492Z,60.93
2018-10-03T00:18:25.737Z,61.17
2018-10-03T00:20:54.924Z,61.55
2018-10-03T00:23:24.132Z,61.87
2018-10-03T00:25:53.248Z,61.59
2018-10-03T00:28:22.400Z,61.84
2018-10-03T00:30:51.913Z,62.00
2018-10-03T00:33:21.088Z,62.26
2018-10-03T00:35:50.236Z,62.36
2018-10-03T00:38:19.373Z,61.99
2018-10-03T00:40:48.532Z,61.94
2018-10-03T00:43:17.700Z,62.00
2018-10-03T00:45:46.855Z,62.30
2018-10-03T00:48:15.990Z,62.45
2018-10-03T00:50:45.156Z,62.19
2018-10-03T00:53:14.299Z,62.51
2018-10-03T00:55:43.428Z,62.53
2018-10-03T00:58:12.624Z,62.88
2018-10-03T01:00:41.823Z,62.35
2018-10-03T01:03:10.992Z,62.41
2018-10-03T01:05:40.169Z,61.96
2018-10-03T01:08:09.384Z,62.06
2018-10-03T01:10:38.593Z,62.19
2018-10-03T01:13:07.779Z,61.91
2018-10-03T01:15:36.928Z,61.55
2018-10-03T01:18:06.083Z,61.55
2018-10-03T01:20:35.294Z,61.51
2018-10-03T01:23:04.433Z,61.68
2018-10-03T01:25:33.600Z,61.95
2018-10-03T01:28:02.773Z,61.78
2018-10-03T01:30:31.916Z,61.42
2018-10-03T01:33:01.043Z,61.94
2018-10-03T01:35:30.211Z,61.52
2018-10-03T01:37:59.372Z,61.81
2018-10-03T01:40:28.516Z,61.90
2018-10-03T01:42:57.659Z,62.07
2018-10-03T01:45:26.812Z,62.06
2018-10-03T01:47:55.979Z,61.91
2018-10-03T01:50:25.124Z,61.53
2018-10-03T01:52:54.288Z,61.30
2018-10-03T01:55:23.422Z,61.59
2018-10-03T01:57:52.592Z,61.09
2018-10-03T02:00:21.765Z,60.95
2018-10-03T02:02:50.916Z,61.19
2018-10-03T02:05:20.031Z,60.63
2018-10-03T02:07:49.197Z,60.94
2018-10-03T02:10:18.313Z,60.76
2018-10-03T02:12:47.461Z,60.74
2018-10-03T02:15:16.591Z,60.20
2018-10-03T02:17:45.773Z,60.04
2018-10-03T02:20:14.936Z,60.03
2018-10-03T02:22:44.113Z,60.36
2018-10-03T02:25:13.265Z,60.78
2018-10-03T02:27:42.400Z,60.71
2018-10-03T02:30:11.559Z,60.31
2018-10-03T02:32:40.709Z,60.70
2018-10-03T02:35:09.871Z,60.87
2018-10-03T02:37:39.080Z,60.92
2018-10-03T02:40:08.285Z,60.93
2018-10-03T02:42:37.439Z,61.05
2018-10-03T02:45:06.643Z,61.20
2018-10-03T02:47:35.799Z,60.74
2018-10-03T02:50:05.012Z,61.10
2018-10-03T02:52:34.120Z,60.80
2018-10-03T02:55:03.263Z,60.68
2018-10-03T02:57:32.417Z,60.90
2018-10-03T03:00:01.547Z,61.05
2018-10-03T03:02:30.687Z,60.93
2018-10-03T03:04:59.857Z,60.63
2018-10-03T03:07:29.005Z,60.19
2018-10-03T03:09:58.152Z,60.35
2018-10-03T03:12:27.388Z,59.99
2018-10-03T03:14:56.526Z,60.09
2018-10-03T03:17:25.676Z,60.05
2018-10-03T03:19:54.807Z,60.09
2018-10-03T03:22:23.968Z,60.26
2018-10-03T03:24:53.148Z,60.38
2018-10-03T03:27:22.284Z,60.25
2018-10-03T03:29:51.423Z,60.70
2018-10-03T03:32:20.617Z,60.39
2018-10-03T03:34:49.783Z,60.61
2018-10-03T03:37:18.940Z,60.39
2018-10-03T03:39:48.129Z,60.38
2018-10-03T03:42:17.260Z,59.89
2018-10-03T03:44:46.436Z,59.84
2018-10-03T03:47:15.580Z,59.70
2018-10-03T03:49:44.763Z,60.03
2018-10-03T03:52:13.965Z,59.97
2018-10-03T03:54:43.153Z,59.90
2018-10-03T03:57:12.302Z,60.22
2018-10-03T03:59:41.465Z,59.71
2018-10-03T04:02:10.653Z,59.71
2018-10-03T04:04:39.819Z,59.50
2018-10-03T04:07:08.989Z,59.41
2018-10-03T04:09:38.130Z,59.87
2018-10-03T04:12:07.306Z,60.04
2018-10-03T04:14:36.454Z,60.20
2018-10-03T04:17:05.572Z,60.25
2018-10-03T04:19:34.745Z,60.19
2018-10-03T04:22:03.893Z,60.43
2018-10-03T04:24:33.053Z,60.32
2018-10-03T04:27:02.183Z,60.88
2018-10-03T04:29:31.320Z,60.60
2018-10-03T04:32:00.487Z,60.61
2018-10-03T04:34:29.662Z,60.22
2018-10-03T04:36:58.810Z,60.44
2018-10-03T04:39:27.926Z,60.25
2018-10-03T04:41:57.090Z,60.28
2018-10-03T04:44:26.269Z,60.44
2018-10-03T04:46:55.443Z,60.60
2018-10-03T04:49:24.567Z,60.31
2018-10-03T04:51:53.689Z,60.54
2018-10-03T04:54:22.853Z,60.76
2018-10-03T04:56:52.032Z,60.54
2018-10-03T04:59:21.217Z,60.87
2018-10-03T05:01:50.385Z,60.76
2018-10-03T05:04:19.573Z,60.86
2018-10-03T05:06:48.718Z,60.76
2018-10-03T05:09:17.888Z,60.80
2018-10-03T05:11:47.051Z,60.89
2018-10-03T05:14:16.225Z,61.31
2018-10-03T05:16:45.361Z,61.40
2018-10-03T05:19:14.512Z,61.33
2018-10-03T05:21:43.701Z,61.40
2018-10-03T05:24:12.830Z,61.38
2018-10-03T05:26:41.964Z,61.31
2018-10-03T05:29:11.129Z,61.15
2018-10-03T05:31:40.358Z,61.46
2018-10-03T05:34:09.524Z,61.62
2018-10-03T05:36:38.721Z,61.09
2018-10-03T05:39:10.763Z,61.23
2018-10-03T05:41:39.933Z,61.14
2018-10-03T05:44:09.144Z,61.20
2018-10-03T05:46:38.307Z,60.98
2018-10-03T05:49:07.447Z,60.94
2018-10-03T05:51:36.600Z,61.08
2018-10-03T05:54:05.743Z,60.78
2018-10-03T05:56:34.861Z,60.71
2018-10-03T05:59:03.998Z,60.74
2018-10-03T06:01:33.126Z,60.63
2018-10-03T06:04:02.264Z,60.57
2018-10-03T06:06:31.472Z,60.33
2018-10-03T06:09:00.593Z,60.21
2018-10-03T06:11:29.735Z,59.99
2018-10-03T06:13:58.875Z,59.92
2018-10-03T06:16:28.032Z,59.90
2018-10-03T06:18:57.237Z,59.59
2018-10-03T06:21:26.417Z,59.17
2018-10-03T06:23:55.611Z,59.44
2018-10-03T06:26:24.788Z,59.56
2018-10-03T06:28:53.945Z,59.47
2018-10-03T06:31:23.157Z,59.20
2018-10-03T06:33:52.296Z,59.09
2018-10-03T06:36:21.440Z,59.00
2018-10-03T06:38:50.640Z,58.94
2018-10-03T06:41:19.984Z,59.12
2018-10-03T06:43:49.133Z,58.40
2018-10-03T06:46:18.240Z,58.66
2018-10-03T06:48:47.393Z,58.75
2018-10-03T06:51:16.507Z,58.08
2018-10-03T06:53:45.612Z,57.78
2018-10-03T06:56:14.777Z,57.63
2018-10-03T06:58:43.884Z,56.99
2018-10-03T07:01:13.010Z,56.82
2018-10-03T07:03:42.160Z,56.41
2018-10-03T07:06:11.296Z,56.41
2018-10-03T07:08:40.436Z,55.74
2018-10-03T07:11:09.589Z,55.30
2018-10-03T07:13:38.685Z,55.49
2018-10-03T07:16:07.825Z,55.54
2018-10-03T07:18:37.068Z,55.05
2018-10-03T07:21:06.264Z,54.99
2018-10-03T07:23:35.389Z,54.18
2018-10-03T07:26:04.513Z,54.08
2018-10-03T07:28:33.601Z,54.40
2018-10-03T07:31:02.727Z,54.64
2018-10-03T07:33:31.875Z,53.91
2018-10-03T07:36:01.009Z,53.69
2018-10-03T07:38:30.122Z,52.71
2018-10-03T07:40:59.222Z,51.85
2018-10-03T07:43:28.364Z,52.23
2018-10-03T07:45:57.479Z,52.71
2018-10-03T07:48:26.868Z,51.81
2018-10-03T07:50:56.030Z,52.00
2018-10-03T07:53:25.512Z,51.35
2018-10-03T07:55:54.655Z,51.46
2018-10-03T07:58:23.804Z,51.47
2018-10-03T08:00:52.939Z,51.26
2018-10-03T08:03:22.063Z,50.83
2018-10-03T08:05:51.173Z,50.60
2018-10-03T08:08:20.260Z,50.40
2018-10-03T08:10:49.421Z,50.59
2018-10-03T08:13:18.506Z,49.74
2018-10-03T08:15:47.669Z,49.88
2018-10-03T08:18:16.793Z,49.60
2018-10-03T08:20:45.932Z,49.59
2018-10-03T08:23:15.067Z,49.96
2018-10-03T08:25:44.189Z,50.41
2018-10-03T08:28:13.301Z,50.00
2018-10-03T08:30:42.412Z,49.98
2018-10-03T08:33:11.666Z,49.35
2018-10-03T08:35:40.738Z,48.33
2018-10-03T08:38:10.041Z,48.08
2018-10-03T08:40:39.190Z,48.90
2018-10-03T08:43:08.889Z,49.14
2018-10-03T08:45:38.127Z,49.18
2018-10-03T08:48:07.296Z,49.55
2018-10-03T08:50:36.452Z,49.86
2018-10-03T08:53:05.605Z,51.43
2018-10-03T08:55:34.759Z,51.78
2018-10-03T08:58:03.959Z,51.82
2018-10-03T09:00:33.121Z,52.65
2018-10-03T09:03:02.252Z,53.57
2018-10-03T09:05:31.391Z,53.49
2018-10-03T09:08:14.113Z,53.25
2018-10-03T09:10:44.654Z,52.27
2018-10-03T09:13:14.366Z,52.11
2018-10-03T09:15:43.511Z,52.20
2018-10-03T09:18:12.656Z,51.75
2018-10-03T09:20:41.805Z,52.04
2018-10-03T09:23:10.977Z,51.39
2018-10-03T09:25:40.111Z,51.04
2018-10-03T09:28:09.383Z,51.22
2018-10-03T09:30:38.529Z,50.83
2018-10-03T09:33:07.797Z,51.27
2018-10-03T09:35:36.989Z,50.46
2018-10-03T09:38:06.176Z,45.87
2018-10-03T09:40:35.342Z,42.99
2018-10-03T09:43:04.543Z,45.69
2018-10-03T09:45:33.729Z,45.03
2018-10-03T09:48:02.888Z,47.20
2018-10-03T09:50:32.033Z,47.22
2018-10-03T09:53:01.233Z,49.06
2018-10-03T09:55:30.392Z,49.03
2018-10-03T09:57:59.556Z,49.11
2018-10-03T10:00:34.140Z,49.31
2018-10-03T10:03:03.237Z,48.76
2018-10-03T10:05:32.489Z,48.19
2018-10-03T10:08:01.672Z,44.12
2018-10-03T10:10:30.819Z,44.36
2018-10-03T10:13:00.144Z,46.52
2018-10-03T10:15:29.374Z,47.94
2018-10-03T10:17:58.560Z,48.24
2018-10-03T10:20:27.824Z,48.30
2018-10-03T10:22:56.975Z,48.55
2018-10-03T10:25:26.136Z,48.93
2018-10-03T10:27:55.364Z,50.49
2018-10-03T10:30:24.520Z,52.75
2018-10-03T10:32:53.770Z,56.06
2018-10-03T10:35:22.875Z,57.35
2018-10-03T10:37:52.090Z,56.01
2018-10-03T10:40:21.247Z,53.22
2018-10-03T10:42:50.430Z,50.70
2018-10-03T10:45:19.600Z,47.67
2018-10-03T10:47:48.733Z,45.48
2018-10-03T10:50:17.991Z,46.55
2018-10-03T10:52:47.164Z,48.32
2018-10-03T10:55:16.339Z,49.51
2018-10-03T10:57:45.488Z,50.06
2018-10-03T11:00:14.683Z,49.34
2018-10-03T11:02:43.858Z,49.99
2018-10-03T11:05:13.010Z,48.98
2018-10-03T11:07:42.184Z,48.43
2018-10-03T11:10:11.343Z,48.80
2018-10-03T11:12:40.520Z,47.69
2018-10-03T11:15:09.685Z,47.74
2018-10-03T11:17:38.866Z,48.45
2018-10-03T11:20:08.036Z,49.93
2018-10-03T11:22:37.180Z,51.32
2018-10-03T11:25:06.315Z,55.15
2018-10-03T11:27:35.481Z,58.74
2018-10-03T11:30:04.885Z,60.12
2018-10-03T11:32:34.073Z,59.99
2018-10-03T11:35:03.397Z,59.00
2018-10-03T11:37:32.588Z,58.37
2018-10-03T11:40:01.865Z,57.64
2018-10-03T11:42:31.091Z,58.08
2018-10-03T11:45:00.265Z,57.82
2018-10-03T11:47:29.544Z,57.66
2018-10-03T11:49:58.752Z,56.35
2018-10-03T11:52:27.929Z,55.93
2018-10-03T11:54:57.093Z,56.13
2018-10-03T11:57:26.211Z,55.50
2018-10-03T11:59:55.365Z,55.37
2018-10-03T12:02:24.520Z,55.72
2018-10-03T12:04:53.676Z,54.87
2018-10-03T12:07:22.840Z,53.59
2018-10-03T12:09:51.957Z,53.02
2018-10-03T12:12:21.117Z,52.90
2018-10-03T12:14:50.288Z,52.57
2018-10-03T12:17:19.497Z,52.51
2018-10-03T12:19:48.635Z,52.52
2018-10-03T12:22:17.807Z,52.77
2018-10-03T12:24:46.956Z,52.28
2018-10-03T12:27:18.572Z,51.63
2018-10-03T12:29:47.774Z,51.25
2018-10-03T12:32:17.570Z,50.83
2018-10-03T12:34:46.792Z,49.27
2018-10-03T12:37:15.941Z,49.95
2018-10-03T12:39:45.083Z,49.72
2018-10-03T12:42:14.234Z,50.67
2018-10-03T12:44:43.386Z,49.82
2018-10-03T12:47:12.526Z,50.10
2018-10-03T12:49:41.660Z,49.74
2018-10-03T12:52:10.793Z,48.37
2018-10-03T12:54:39.975Z,47.29
2018-10-03T12:57:09.097Z,47.87
2018-10-03T12:59:38.254Z,48.79
2018-10-03T13:02:08.008Z,48.37
2018-10-03T13:04:37.471Z,49.30
2018-10-03T13:07:06.717Z,50.29
2018-10-03T13:09:35.869Z,54.41
2018-10-03T13:12:04.987Z,57.92
2018-10-03T13:14:34.137Z,59.11
2018-10-03T13:17:03.272Z,58.33
2018-10-03T13:19:32.412Z,57.67
2018-10-03T13:22:01.572Z,57.82
2018-10-03T13:24:30.796Z,56.75
2018-10-03T13:26:59.835Z,57.84
2018-10-03T13:29:28.981Z,57.94
2018-10-03T13:31:58.119Z,56.85
2018-10-03T13:34:27.288Z,57.10
2018-10-03T13:36:56.437Z,57.97
2018-10-03T13:39:25.659Z,57.10
2018-10-03T13:41:55.614Z,56.34
2018-10-03T13:44:24.743Z,56.79
2018-10-03T13:46:53.903Z,54.15
2018-10-03T13:49:23.044Z,52.55
2018-10-03T13:51:52.176Z,51.15
2018-10-03T13:54:21.284Z,51.69
2018-10-03T13:56:50.560Z,51.61
2018-10-03T13:59:19.682Z,51.66
2018-10-03T14:01:48.886Z,52.50
2018-10-03T14:04:18.000Z,53.01
2018-10-03T14:06:47.139Z,55.08
2018-10-03T14:09:16.282Z,56.61
2018-10-03T14:11:45.431Z,56.84
2018-10-03T14:14:14.568Z,58.30
2018-10-03T14:16:43.705Z,58.00
2018-10-03T14:19:13.193Z,57.59
2018-10-03T14:21:42.318Z,57.80
2018-10-03T14:24:11.476Z,58.17
2018-10-03T14:26:40.601Z,57.88
2018-10-03T14:29:09.969Z,57.69
2018-10-03T14:31:39.120Z,58.93
2018-10-03T14:34:08.308Z,56.89
2018-10-03T14:36:37.492Z,56.94
2018-10-03T14:39:08.067Z,56.38
2018-10-03T14:41:37.181Z,56.21
2018-10-03T14:44:06.337Z,56.67
2018-10-03T14:46:35.562Z,57.27
2018-10-03T14:49:04.669Z,57.21
2018-10-03T14:51:33.833Z,58.65
2018-10-03T14:54:02.976Z,57.83
2018-10-03T14:56:32.112Z,58.59
2018-10-03T14:59:01.257Z,57.96
2018-10-03T15:01:30.483Z,58.64
2018-10-03T15:03:59.633Z,57.53
2018-10-03T15:06:28.817Z,57.52
2018-10-03T15:08:57.971Z,57.73
2018-10-03T15:11:27.095Z,58.23
2018-10-03T15:13:56.295Z,57.82
2018-10-03T15:16:25.461Z,57.32
2018-10-03T15:18:54.633Z,57.68
2018-10-03T15:21:23.800Z,57.61
2018-10-03T15:23:52.912Z,56.00
2018-10-03T15:26:22.149Z,55.22
2018-10-03T15:28:51.369Z,55.55
2018-10-03T15:31:20.541Z,55.97
2018-10-03T15:33:49.704Z,56.92
2018-10-03T15:36:18.921Z,57.61
2018-10-03T15:38:48.081Z,57.35
2018-10-03T15:41:17.249Z,56.94
2018-10-03T15:43:46.388Z,56.52
2018-10-03T15:46:15.549Z,56.54
2018-10-03T15:48:44.729Z,56.75
2018-10-03T15:51:13.971Z,57.10
2018-10-03T15:53:43.131Z,57.07
2018-10-03T15:56:12.278Z,57.04
2018-10-03T15:58:41.461Z,57.57
2018-10-03T16:01:10.650Z,57.47
2018-10-03T16:03:39.820Z,57.56
2018-10-03T16:06:09.002Z,58.12
2018-10-03T16:08:38.202Z,57.20
2018-10-03T16:11:07.385Z,58.08
2018-10-03T16:13:36.524Z,57.42
2018-10-03T16:16:05.674Z,57.01
2018-10-03T16:18:34.842Z,56.71
2018-10-03T16:21:04.042Z,57.10
2018-10-03T16:23:33.213Z,57.42
2018-10-03T16:26:02.382Z,57.51
2018-10-03T16:28:31.591Z,57.33
2018-10-03T16:31:00.929Z,57.66
2018-10-03T16:33:30.117Z,57.48
2018-10-03T16:35:59.261Z,57.67
2018-10-03T16:38:28.469Z,57.72
2018-10-03T16:40:57.629Z,58.22
2018-10-03T16:43:26.778Z,58.25
2018-10-03T16:45:55.924Z,58.72
2018-10-03T16:48:25.063Z,58.82
2018-10-03T16:50:54.237Z,59.01
2018-10-03T16:53:23.395Z,58.83
2018-10-03T16:55:52.590Z,59.00
2018-10-03T16:58:21.681Z,59.75
2018-10-03T17:00:50.890Z,60.11
2018-10-03T17:03:20.033Z,60.54
2018-10-03T17:05:49.252Z,60.83
2018-10-03T17:08:18.416Z,61.16
2018-10-03T17:10:47.688Z,61.51
2018-10-03T17:13:16.839Z,61.76
2018-10-03T17:15:46.013Z,61.33
2018-10-03T17:18:15.144Z,61.40
2018-10-03T17:20:44.329Z,61.68
2018-10-03T17:23:13.569Z,61.33
2018-10-03T17:25:42.826Z,61.96
2018-10-03T17:28:11.976Z,62.12
2018-10-03T17:30:41.131Z,62.34
2018-10-03T17:33:10.260Z,62.05
2018-10-03T17:35:39.408Z,61.66
2018-10-03T17:38:08.542Z,61.57
2018-10-03T17:40:37.689Z,61.89
2018-10-03T17:43:06.891Z,61.79
2018-10-03T17:45:36.067Z,61.91
2018-10-03T17:48:05.296Z,61.71
2018-10-03T17:50:34.544Z,61.74
2018-10-03T17:53:03.713Z,61.79
2018-10-03T17:55:32.996Z,61.42
2018-10-03T17:58:02.199Z,61.66
2018-10-03T18:00:31.499Z,61.51
2018-10-03T18:03:00.644Z,61.21
2018-10-03T18:05:29.783Z,61.19
2018-10-03T18:07:59.008Z,60.91
2018-10-03T18:10:28.218Z,60.68
2018-10-03T18:12:57.360Z,61.11
2018-10-03T18:15:26.544Z,60.48
2018-10-03T18:17:55.704Z,60.49
2018-10-03T18:20:24.978Z,60.71
2018-10-03T18:22:54.179Z,61.06
2018-10-03T18:25:23.942Z,61.18
2018-10-03T18:27:53.122Z,61.40
2018-10-03T18:30:22.267Z,61.63
2018-10-03T18:32:51.391Z,61.69
2018-10-03T18:35:20.529Z,61.86
2018-10-03T18:37:49.682Z,61.89
2018-10-03T18:40:18.824Z,61.99
2018-10-03T18:42:47.989Z,62.17
2018-10-03T18:45:17.096Z,62.35
2018-10-03T18:47:46.256Z,62.28
2018-10-03T18:50:15.491Z,62.57
2018-10-03T18:52:44.692Z,62.30
2018-10-03T18:55:13.860Z,62.20
2018-10-03T18:57:43.021Z,62.34
2018-10-03T19:00:12.185Z,62.76
2018-10-03T19:02:41.347Z,62.96
2018-10-03T19:05:10.479Z,63.37
2018-10-03T19:07:39.604Z,63.70
2018-10-03T19:10:08.715Z,63.87
2018-10-03T19:12:37.943Z,64.14
2018-10-03T19:15:07.063Z,64.36
2018-10-03T19:17:36.190Z,64.96
2018-10-03T19:20:05.624Z,65.24
2018-10-03T19:22:34.709Z,65.05
2018-10-03T19:25:03.810Z,65.06
2018-10-03T19:30:30.545Z,64.75
2018-10-03T19:32:59.663Z,65.18
2018-10-03T19:35:28.806Z,65.16
2018-10-03T19:37:57.917Z,64.93
2018-10-03T19:40:27.085Z,64.99
2018-10-03T19:42:56.250Z,65.37
2018-10-03T19:45:25.393Z,65.35
2018-10-03T19:47:54.584Z,65.31
2018-10-03T19:50:23.639Z,65.52
2018-10-03T19:52:52.794Z,65.65
2018-10-03T19:55:21.952Z,65.71
2018-10-03T19:57:51.089Z,65.21
2018-10-03T20:00:20.216Z,64.99
2018-10-03T20:02:49.377Z,64.80
2018-10-03T20:05:18.557Z,64.71
2018-10-03T20:07:47.718Z,64.01
2018-10-03T20:10:16.992Z,64.06
2018-10-03T20:12:46.208Z,63.96
2018-10-03T20:15:15.401Z,63.33
2018-10-03T20:17:44.549Z,63.40
2018-10-03T20:20:13.715Z,63.32
2018-10-03T20:22:42.839Z,63.18
2018-10-03T20:25:12.001Z,63.32
2018-10-03T20:27:41.108Z,63.34
2018-10-03T20:30:10.259Z,63.49
2018-10-03T20:32:39.396Z,63.96
2018-10-03T20:35:08.526Z,63.92
2018-10-03T20:37:37.637Z,64.07
2018-10-03T20:40:06.811Z,64.13
2018-10-03T20:42:35.900Z,64.47
2018-10-03T20:45:05.006Z,64.37
2018-10-03T20:47:34.101Z,64.45
2018-10-03T20:50:03.224Z,64.58
2018-10-03T20:52:32.446Z,64.39
2018-10-03T20:55:01.603Z,63.99
2018-10-03T20:57:30.720Z,63.69
2018-10-03T20:59:59.864Z,63.81
2018-10-03T21:02:29.028Z,63.72
2018-10-03T21:04:58.685Z,63.53
2018-10-03T21:07:27.802Z,63.49
2018-10-03T21:09:56.928Z,63.56
2018-10-03T21:12:26.290Z,63.10
2018-10-03T21:14:55.451Z,63.15
2018-10-03T21:17:24.589Z,63.11
2018-10-03T21:19:53.741Z,63.09
2018-10-03T21:22:22.895Z,63.02
2018-10-03T21:24:52.025Z,62.60
2018-10-03T21:27:21.165Z,62.83
2018-10-03T21:29:50.284Z,62.63
2018-10-03T21:32:19.478Z,62.60
2018-10-03T21:34:48.606Z,62.23
2018-10-03T21:37:17.796Z,62.44
2018-10-03T21:39:46.928Z,62.54
2018-10-03T21:42:16.059Z,62.68
2018-10-03T21:44:45.201Z,63.22
2018-10-03T21:47:14.356Z,62.89
2018-10-03T21:49:43.592Z,62.92
2018-10-03T21:52:12.695Z,63.04
2018-10-03T21:54:41.854Z,62.85
2018-10-03T21:57:10.959Z,63.45
2018-10-03T21:59:40.104Z,63.39
2018-10-03T22:02:09.327Z,63.49
2018-10-03T22:04:38.494Z,63.29
2018-10-03T22:07:07.649Z,63.27
2018-10-03T22:09:36.793Z,63.19
2018-10-03T22:12:05.926Z,63.44
2018-10-03T22:14:35.105Z,63.48
2018-10-03T22:17:04.400Z,63.66
2018-10-03T22:19:33.511Z,63.77
2018-10-03T22:22:02.653Z,63.68
2018-10-03T22:24:31.815Z,63.87
2018-10-03T22:27:00.943Z,63.59
2018-10-03T22:29:30.117Z,63.46
2018-10-03T22:31:59.265Z,63.28
2018-10-03T22:34:28.425Z,63.49
2018-10-03T22:36:57.571Z,63.25
2018-10-03T22:39:26.706Z,63.02
2018-10-03T22:41:55.824Z,62.98
2018-10-03T22:44:25.036Z,63.72
2018-10-03T22:46:54.166Z,63.34
2018-10-03T22:49:23.313Z,63.53
2018-10-03T22:51:52.484Z,63.68
2018-10-03T22:54:21.613Z,63.85
2018-10-03T22:56:50.744Z,63.64
2018-10-03T22:59:19.901Z,64.22
2018-10-03T23:01:49.058Z,63.96
2018-10-03T23:04:18.244Z,64.24
2018-10-03T23:06:47.373Z,64.67
2018-10-03T23:09:16.519Z,64.58
2018-10-03T23:11:45.680Z,65.03
2018-10-03T23:14:14.873Z,65.07
2018-10-03T23:16:44.016Z,65.43
2018-10-03T23:19:13.168Z,65.39
2018-10-03T23:21:42.311Z,65.56
2018-10-03T23:24:11.485Z,65.77
2018-10-03T23:26:40.614Z,65.86
2018-10-03T23:29:09.811Z,65.96
2018-10-03T23:31:38.983Z,65.84
2018-10-03T23:34:08.134Z,66.18
2018-10-03T23:36:37.271Z,66.05
2018-10-03T23:39:10.015Z,66.29
2018-10-03T23:41:39.441Z,66.29
2018-10-03T23:44:08.724Z,66.24
2018-10-03T23:46:37.904Z,66.14
2018-10-03T23:49:07.082Z,66.51
2018-10-03T23:51:36.216Z,66.18
2018-10-03T23:54:05.343Z,66.24
2018-10-03T23:56:34.487Z,66.48
2018-10-03T23:59:03.671Z,66.67
